createdAt,value
2019-05-26T00:00:11.527Z,28.05
2019-05-26T00:02:41.406Z,29.85
2019-05-26T00:05:11.190Z,29.42
2019-05-26T00:07:40.896Z,29.15
2019-05-26T00:10:10.751Z,32.58
2019-05-26T00:12:40.488Z,31.90
2019-05-26T00:15:10.480Z,30.30
2019-05-26T00:17:40.096Z,31.82
2019-05-26T00:20:10.023Z,34.33
2019-05-26T00:22:39.726Z,34.45
2019-05-26T00:25:09.626Z,34.78
2019-05-26T00:30:09.311Z,38.70
2019-05-26T00:32:39.196Z,42.80
2019-05-26T00:35:09.169Z,44.20
2019-05-26T00:37:49.037Z,46.55
2019-05-26T00:40:11.560Z,45.80
2019-05-26T00:42:41.254Z,47.90
2019-05-26T00:47:39.956Z,48.25
2019-05-26T00:52:39.013Z,47.25
2019-05-26T00:55:09.236Z,48.58
2019-05-26T00:57:39.028Z,52.35
2019-05-26T01:00:12.242Z,52.33
2019-05-26T01:02:42.025Z,51.15
2019-05-26T01:05:12.153Z,53.20
2019-05-26T01:07:41.848Z,52.27
2019-05-26T01:10:11.667Z,52.50
2019-05-26T01:15:10.538Z,49.35
2019-05-26T01:17:40.197Z,48.80
2019-05-26T01:20:10.180Z,46.05
2019-05-26T01:22:39.765Z,44.98
2019-05-26T01:25:09.506Z,44.42
2019-05-26T01:27:39.235Z,45.92
2019-05-26T01:30:09.281Z,46.75
2019-05-26T01:32:39.082Z,49.00
2019-05-26T01:35:08.887Z,46.25
2019-05-26T01:40:08.353Z,43.02
2019-05-26T01:42:37.971Z,43.02
2019-05-26T01:45:09.649Z,44.20
2019-05-26T01:47:39.361Z,43.68
2019-05-26T01:50:09.261Z,40.85
2019-05-26T01:55:08.696Z,37.65
2019-05-26T01:57:38.488Z,31.80
2019-05-26T02:02:37.544Z,25.00
2019-05-26T02:05:07.543Z,26.50
2019-05-26T02:07:37.258Z,29.12
2019-05-26T02:10:08.128Z,32.23
2019-05-26T02:12:37.922Z,31.62
2019-05-26T02:15:09.146Z,29.67
2019-05-26T02:17:38.855Z,26.30
2019-05-26T02:20:08.775Z,28.92
2019-05-26T02:22:38.493Z,28.65
2019-05-26T02:25:10.093Z,26.80
2019-05-26T02:27:39.729Z,27.67
2019-05-26T02:30:11.119Z,30.05
2019-05-26T02:32:40.838Z,32.75
2019-05-26T02:35:10.833Z,33.75
2019-05-26T02:37:40.575Z,32.58
2019-05-26T02:40:11.282Z,32.42
2019-05-26T02:42:40.993Z,31.33
2019-05-26T02:45:12.555Z,30.52
2019-05-26T02:47:42.188Z,33.08
2019-05-26T02:50:12.946Z,31.17
2019-05-26T02:52:42.590Z,32.30
2019-05-26T02:55:14.114Z,31.70
2019-05-26T02:57:43.816Z,30.70
2019-05-26T03:00:15.606Z,31.02
2019-05-26T03:02:45.628Z,32.03
2019-05-26T03:05:16.349Z,29.07
2019-05-26T03:07:46.103Z,25.55
2019-05-26T03:12:46.154Z,20.17
2019-05-26T03:15:16.268Z,21.70
2019-05-26T03:17:47.610Z,25.52
2019-05-26T03:20:18.102Z,25.15
2019-05-26T03:22:49.242Z,26.77
2019-05-26T03:25:19.988Z,26.95
2019-05-26T03:27:49.632Z,28.40
2019-05-26T03:30:19.369Z,28.02
2019-05-26T03:32:49.070Z,27.15
2019-05-26T03:35:18.721Z,27.20
2019-05-26T03:37:48.257Z,27.42
2019-05-26T03:40:18.016Z,28.90
2019-05-26T03:42:47.658Z,27.07
2019-05-26T03:45:41.340Z,26.60
2019-05-26T03:48:11.038Z,27.48
2019-05-26T03:50:40.758Z,25.20
2019-05-26T03:55:39.203Z,27.55
2019-05-26T03:58:08.846Z,25.65
2019-05-26T04:00:38.556Z,28.00
2019-05-26T04:03:08.172Z,30.15
2019-05-26T04:05:37.909Z,32.05
2019-05-26T04:10:36.542Z,28.25
2019-05-26T04:15:35.072Z,30.00
2019-05-26T04:20:33.597Z,31.17
2019-05-26T04:23:03.141Z,33.10
2019-05-26T04:25:32.881Z,32.98
2019-05-26T04:28:02.407Z,34.48
2019-05-26T04:30:32.168Z,33.80
2019-05-26T04:35:30.581Z,35.95
2019-05-26T04:38:00.214Z,36.55
2019-05-26T04:40:29.853Z,34.73
2019-05-26T04:42:59.532Z,35.25
2019-05-26T04:45:29.088Z,36.30
2019-05-26T04:47:58.718Z,35.25
2019-05-26T04:50:28.318Z,34.70
2019-05-26T04:53:06.231Z,33.83
2019-05-26T04:55:29.146Z,35.90
2019-05-26T04:57:58.845Z,36.58
2019-05-26T05:00:28.615Z,34.80
2019-05-26T05:05:27.027Z,35.00
2019-05-26T05:07:56.668Z,34.27
2019-05-26T05:10:41.205Z,35.05
2019-05-26T05:12:57.849Z,34.10
2019-05-26T05:17:56.304Z,31.62
2019-05-26T05:20:25.861Z,31.45
2019-05-26T05:22:55.609Z,31.95
2019-05-26T05:27:53.912Z,31.20
2019-05-26T05:30:23.818Z,31.25
2019-05-26T05:35:22.259Z,31.20
2019-05-26T05:40:20.920Z,28.12
2019-05-26T05:42:50.549Z,30.27
2019-05-26T05:45:20.245Z,29.37
2019-05-26T05:47:49.922Z,30.05
2019-05-26T05:52:49.296Z,29.20
2019-05-26T05:55:19.133Z,29.37
2019-05-26T06:00:17.804Z,30.85
2019-05-26T06:02:47.389Z,32.55
2019-05-26T06:05:17.078Z,33.92
2019-05-26T06:10:15.905Z,30.95
2019-05-26T06:12:45.711Z,31.60
2019-05-26T06:17:45.869Z,32.85
2019-05-26T06:20:15.777Z,33.78
2019-05-26T06:22:45.399Z,25.72
2019-05-26T06:25:15.496Z,23.35
2019-05-26T06:27:45.134Z,24.20
2019-05-26T06:30:15.003Z,24.60
2019-05-26T06:32:44.568Z,25.08
2019-05-26T06:35:14.456Z,25.10
2019-05-26T06:37:44.931Z,24.18
2019-05-26T06:40:16.074Z,23.83
2019-05-26T06:42:45.926Z,21.77
2019-05-26T06:45:15.974Z,22.80
2019-05-26T06:47:45.611Z,20.82
2019-05-26T06:50:16.990Z,19.30
2019-05-26T06:52:46.630Z,17.73
2019-05-26T06:55:16.305Z,18.50
2019-05-26T07:00:15.059Z,17.82
2019-05-26T07:02:44.614Z,18.42
2019-05-26T07:05:18.266Z,16.60
2019-05-26T07:07:45.752Z,14.23
2019-05-26T07:10:15.943Z,12.50
2019-05-26T07:12:45.510Z,13.00
2019-05-26T07:15:15.402Z,12.15
2019-05-26T07:17:44.978Z,12.82
2019-05-26T07:20:14.809Z,11.70
2019-05-26T07:22:44.355Z,10.00
2019-05-26T07:25:14.705Z,11.12
2019-05-26T07:27:44.363Z,9.48
2019-05-26T07:30:14.472Z,9.75
2019-05-26T07:32:44.150Z,10.38
2019-05-26T07:37:43.119Z,9.58
2019-05-26T07:42:41.630Z,8.15
2019-05-26T07:47:40.143Z,9.18
2019-05-26T07:50:10.004Z,8.78
2019-05-26T07:52:39.737Z,8.85
2019-05-26T07:57:38.092Z,8.88
2019-05-26T08:00:08.784Z,8.38
2019-05-26T08:02:38.557Z,8.93
2019-05-26T08:07:37.058Z,8.07
2019-05-26T08:12:35.646Z,7.83
2019-05-26T08:15:07.107Z,9.20
2019-05-26T08:17:37.746Z,8.20
2019-05-26T08:22:36.397Z,7.58
2019-05-26T08:25:07.286Z,7.75
2019-05-26T08:27:36.839Z,7.60
2019-05-26T08:30:07.439Z,7.15
2019-05-26T08:32:37.103Z,7.67
2019-05-26T08:37:36.526Z,7.40
2019-05-26T08:40:19.182Z,7.35
2019-05-26T08:42:50.400Z,7.22
2019-05-26T08:45:22.783Z,7.05
2019-05-26T08:47:53.940Z,6.87
2019-05-26T08:50:23.741Z,6.90
2019-05-26T08:52:53.366Z,6.53
2019-05-26T08:55:23.252Z,5.92
2019-05-26T08:57:52.790Z,6.72
2019-05-26T09:02:51.303Z,6.57
2019-05-26T09:05:21.041Z,7.25
2019-05-26T09:07:50.696Z,6.53
2019-05-26T09:10:21.347Z,6.92
2019-05-26T09:13:00.138Z,6.20
2019-05-26T09:15:22.831Z,6.58
2019-05-26T09:17:52.526Z,6.17
2019-05-26T09:22:50.985Z,6.05
2019-05-26T09:25:20.634Z,5.60
2019-05-26T09:27:50.390Z,5.20
2019-05-26T09:30:20.251Z,6.08
2019-05-26T09:32:50.016Z,5.53
2019-05-26T09:37:48.489Z,5.10
2019-05-26T09:40:18.345Z,5.35
2019-05-26T09:42:49.026Z,5.37
2019-05-26T09:45:19.297Z,5.33
2019-05-26T09:47:49.017Z,5.20
2019-05-26T09:50:18.958Z,5.08
2019-05-26T09:52:48.773Z,5.78
2019-05-26T09:55:18.696Z,5.58
2019-05-26T09:57:48.328Z,5.72
2019-05-26T10:02:47.119Z,5.95
2019-05-26T10:05:16.768Z,5.90
2019-05-26T10:07:46.466Z,6.20
2019-05-26T10:10:16.335Z,6.05
2019-05-26T10:12:46.015Z,6.28
2019-05-26T10:15:16.018Z,5.90
2019-05-26T10:17:45.551Z,5.45
2019-05-26T10:22:44.028Z,6.22
2019-05-26T10:25:13.735Z,5.47
2019-05-26T10:27:43.418Z,5.70
2019-05-26T10:30:14.520Z,6.03
2019-05-26T10:32:44.271Z,6.15
2019-05-26T10:35:14.462Z,6.08
2019-05-26T10:37:44.081Z,5.87
2019-05-26T10:40:14.643Z,6.22
2019-05-26T10:42:44.361Z,5.55
2019-05-26T10:45:14.411Z,5.72
2019-05-26T10:47:44.096Z,5.80
2019-05-26T10:50:13.867Z,5.58
2019-05-26T10:52:43.428Z,6.28
2019-05-26T10:55:13.274Z,5.92
2019-05-26T10:57:42.899Z,6.17
2019-05-26T11:00:12.773Z,6.05
2019-05-26T11:02:42.382Z,5.92
2019-05-26T11:05:13.380Z,6.10
2019-05-26T11:07:42.984Z,6.00
2019-05-26T11:10:12.988Z,6.20
2019-05-26T11:12:42.906Z,6.55
2019-05-26T11:15:12.895Z,6.83
2019-05-26T11:17:42.527Z,6.20
2019-05-26T11:20:12.593Z,6.87
2019-05-26T11:22:42.166Z,6.42
2019-05-26T11:25:12.248Z,6.25
2019-05-26T11:27:41.803Z,8.08
2019-05-26T11:30:12.955Z,9.93
2019-05-26T11:32:42.668Z,12.13
2019-05-26T11:35:12.834Z,7.65
2019-05-26T11:37:42.381Z,7.65
2019-05-26T11:40:12.689Z,7.10
2019-05-26T11:42:44.866Z,7.05
2019-05-26T11:45:14.008Z,6.53
2019-05-26T11:47:43.827Z,6.90
2019-05-26T11:50:14.108Z,7.53
2019-05-26T11:52:43.723Z,6.75
2019-05-26T11:55:14.912Z,6.60
2019-05-26T11:57:44.452Z,6.83
2019-05-26T12:00:17.063Z,6.75
2019-05-26T12:02:47.734Z,6.65
2019-05-26T12:05:18.063Z,6.53
2019-05-26T12:07:47.813Z,6.90
2019-05-26T12:10:17.697Z,6.45
2019-05-26T12:12:47.320Z,6.12
2019-05-26T12:15:17.663Z,6.67
2019-05-26T12:17:47.184Z,6.58
2019-05-26T12:20:17.573Z,5.92
2019-05-26T12:22:47.187Z,5.78
2019-05-26T12:25:17.685Z,6.15
2019-05-26T12:27:47.312Z,6.12
2019-05-26T12:30:17.313Z,6.03
2019-05-26T12:32:47.049Z,6.50
2019-05-26T12:35:16.872Z,6.70
2019-05-26T12:37:48.471Z,5.70
2019-05-26T12:40:18.296Z,6.45
2019-05-26T12:42:47.990Z,6.08
2019-05-26T12:45:18.441Z,6.20
2019-05-26T12:47:48.559Z,6.87
2019-05-26T12:50:18.332Z,6.12
2019-05-26T12:52:47.985Z,6.05
2019-05-26T12:55:17.783Z,6.37
2019-05-26T12:57:47.329Z,6.42
2019-05-26T13:00:17.131Z,6.00
2019-05-26T13:02:47.657Z,6.25
2019-05-26T13:05:17.819Z,6.03
2019-05-26T13:07:47.459Z,5.87
2019-05-26T13:10:17.728Z,6.50
2019-05-26T13:12:47.254Z,6.28
2019-05-26T13:15:20.115Z,6.30
2019-05-26T13:17:49.723Z,6.15
2019-05-26T13:20:19.835Z,6.10
2019-05-26T13:22:49.540Z,6.50
2019-05-26T13:25:20.235Z,6.28
2019-05-26T13:27:49.805Z,5.60
2019-05-26T13:30:24.722Z,6.50
2019-05-26T13:32:54.332Z,5.85
2019-05-26T13:35:24.212Z,6.70
2019-05-26T13:37:53.834Z,6.60
2019-05-26T13:40:23.519Z,6.30
2019-05-26T13:42:53.142Z,6.37
2019-05-26T13:45:23.562Z,6.30
2019-05-26T13:47:53.427Z,6.12
2019-05-26T13:50:23.120Z,6.05
2019-05-26T13:52:52.813Z,6.47
2019-05-26T13:55:22.489Z,6.75
2019-05-26T13:57:52.289Z,6.53
2019-05-26T14:00:23.568Z,6.37
2019-05-26T14:02:53.336Z,6.35
2019-05-26T14:05:22.920Z,6.20
2019-05-26T14:07:52.605Z,6.40
2019-05-26T14:10:34.385Z,5.90
2019-05-26T14:13:04.967Z,5.65
2019-05-26T14:15:38.427Z,5.28
2019-05-26T14:18:06.287Z,5.83
2019-05-26T14:20:40.924Z,5.40
2019-05-26T14:23:11.003Z,5.58
2019-05-26T14:25:40.752Z,5.45
2019-05-26T14:28:10.434Z,5.10
2019-05-26T14:30:40.069Z,5.37
2019-05-26T14:33:09.738Z,5.12
2019-05-26T14:35:39.418Z,5.08
2019-05-26T14:38:09.050Z,5.05
2019-05-26T14:40:39.118Z,4.70
2019-05-26T14:43:08.660Z,5.15
2019-05-26T14:45:52.365Z,4.30
2019-05-26T14:48:09.474Z,4.85
2019-05-26T14:50:40.790Z,4.70
2019-05-26T14:53:10.379Z,4.90
2019-05-26T14:55:39.910Z,4.55
2019-05-26T14:58:15.813Z,4.67
2019-05-26T15:00:40.695Z,4.60
2019-05-26T15:03:10.313Z,4.90
2019-05-26T15:05:39.927Z,4.80
2019-05-26T15:08:09.556Z,5.12
2019-05-26T15:10:39.230Z,4.87
2019-05-26T15:13:08.838Z,5.33
2019-05-26T15:15:38.499Z,4.80
2019-05-26T15:18:08.076Z,5.10
2019-05-26T15:20:37.688Z,4.83
2019-05-26T15:23:08.187Z,5.50
2019-05-26T15:25:37.730Z,5.20
2019-05-26T15:28:08.238Z,4.83
2019-05-26T15:30:37.916Z,5.17
2019-05-26T15:33:07.430Z,4.92
2019-05-26T15:35:37.055Z,5.00
2019-05-26T15:38:06.746Z,5.20
2019-05-26T15:40:36.291Z,5.17
2019-05-26T15:43:06.037Z,5.75
2019-05-26T15:45:35.671Z,5.55
2019-05-26T15:48:05.422Z,5.83
2019-05-26T15:50:34.988Z,5.85
2019-05-26T15:53:04.735Z,5.58
2019-05-26T15:55:39.557Z,5.75
2019-05-26T15:58:06.729Z,5.58
2019-05-26T16:00:36.402Z,5.80
2019-05-26T16:03:06.037Z,6.08
2019-05-26T16:05:35.655Z,5.70
2019-05-26T16:08:05.263Z,5.65
2019-05-26T16:10:34.826Z,5.20
2019-05-26T16:13:04.509Z,5.42
2019-05-26T16:15:34.126Z,5.33
2019-05-26T16:18:03.816Z,5.80
2019-05-26T16:20:33.503Z,5.60
2019-05-26T16:23:03.130Z,5.62
2019-05-26T16:25:32.746Z,5.72
2019-05-26T16:28:02.275Z,6.00
2019-05-26T16:30:31.886Z,5.45
2019-05-26T16:33:01.555Z,5.15
2019-05-26T16:35:31.167Z,5.65
2019-05-26T16:38:01.707Z,5.60
2019-05-26T16:40:31.330Z,5.53
2019-05-26T16:43:00.946Z,5.58
2019-05-26T16:45:30.576Z,5.40
2019-05-26T16:48:00.123Z,5.65
2019-05-26T16:50:33.058Z,5.25
2019-05-26T16:53:02.734Z,5.87
2019-05-26T16:55:32.371Z,5.42
2019-05-26T16:58:01.947Z,5.20
2019-05-26T17:00:31.521Z,5.25
2019-05-26T17:03:01.128Z,5.70
2019-05-26T17:05:30.812Z,5.40
2019-05-26T17:08:00.350Z,5.40
2019-05-26T17:10:29.879Z,5.55
2019-05-26T17:12:59.463Z,5.65
2019-05-26T17:15:29.146Z,5.03
2019-05-26T17:17:59.704Z,5.30
2019-05-26T17:20:29.396Z,5.22
2019-05-26T17:22:58.926Z,5.12
2019-05-26T17:25:28.471Z,5.00
2019-05-26T17:27:58.044Z,5.28
2019-05-26T17:30:28.706Z,6.15
2019-05-26T17:32:58.417Z,5.30
2019-05-26T17:35:28.042Z,5.28
2019-05-26T17:37:57.602Z,5.30
2019-05-26T17:42:55.903Z,5.78
2019-05-26T17:47:54.265Z,5.90
2019-05-26T17:52:52.559Z,5.78
2019-05-26T17:57:50.923Z,6.08
2019-05-26T18:00:20.803Z,5.95
2019-05-26T18:02:50.732Z,5.55
2019-05-26T18:05:20.499Z,5.70
2019-05-26T18:07:50.105Z,5.85
2019-05-26T18:12:48.572Z,5.33
2019-05-26T18:15:18.479Z,5.62
2019-05-26T18:17:48.100Z,5.60
2019-05-26T18:20:18.673Z,6.37
2019-05-26T18:25:17.269Z,5.37
2019-05-26T18:27:46.886Z,5.40
2019-05-26T18:32:45.571Z,5.58
2019-05-26T18:35:15.266Z,5.53
2019-05-26T18:40:13.663Z,5.87
2019-05-26T18:45:13.245Z,5.47
2019-05-26T18:47:43.795Z,5.45
2019-05-26T18:52:42.925Z,5.87
2019-05-26T18:57:41.282Z,5.47
2019-05-26T19:05:10.021Z,6.03
2019-05-26T19:07:39.738Z,5.70
2019-05-26T19:12:38.582Z,5.85
2019-05-26T19:17:37.711Z,5.75
2019-05-26T19:22:37.734Z,6.10
2019-05-26T19:27:36.037Z,5.90
2019-05-26T19:30:08.199Z,5.75
2019-05-26T19:32:37.866Z,6.10
2019-05-26T19:35:08.110Z,5.58
2019-05-26T19:37:37.864Z,5.75
2019-05-26T19:42:38.330Z,5.35
2019-05-26T19:47:36.991Z,5.47
2019-05-26T19:50:07.667Z,5.45
2019-05-26T19:52:37.399Z,5.62
2019-05-26T19:57:37.514Z,6.05
2019-05-26T20:02:38.516Z,5.90
2019-05-26T20:05:09.188Z,5.72
2019-05-26T20:07:40.387Z,6.15
2019-05-26T20:10:10.763Z,5.92
2019-05-26T20:12:41.416Z,5.87
2019-05-26T20:15:12.474Z,5.60
2019-05-26T20:17:42.228Z,6.05
2019-05-26T20:22:41.152Z,6.12
2019-05-26T20:25:11.007Z,6.35
2019-05-26T20:27:41.966Z,5.92
2019-05-26T20:30:11.818Z,5.85
2019-05-26T20:32:41.736Z,6.15
2019-05-26T20:35:11.690Z,5.78
2019-05-26T20:37:41.383Z,5.87
2019-05-26T20:40:11.529Z,6.00
2019-05-26T20:42:41.112Z,6.00
2019-05-26T20:47:40.013Z,6.33
2019-05-26T20:52:39.438Z,6.00
2019-05-26T20:55:09.402Z,6.17
2019-05-26T20:57:38.955Z,6.08
2019-05-26T21:00:12.283Z,6.25
2019-05-26T21:02:42.551Z,6.00
2019-05-26T21:05:14.560Z,6.22
2019-05-26T21:07:44.343Z,5.62
2019-05-26T21:10:14.110Z,6.03
2019-05-26T21:12:43.761Z,5.97
2019-05-26T21:17:42.235Z,6.00
2019-05-26T21:20:12.706Z,6.20
2019-05-26T21:22:42.594Z,5.97
2019-05-26T21:25:13.754Z,5.58
2019-05-26T21:27:43.434Z,5.92
2019-05-26T21:30:13.116Z,5.85
2019-05-26T21:35:12.197Z,5.78
2019-05-26T21:37:41.823Z,5.75
2019-05-26T21:40:12.584Z,6.15
2019-05-26T21:42:42.192Z,5.95
2019-05-26T21:45:12.804Z,5.72
2019-05-26T21:47:42.411Z,6.05
2019-05-26T21:50:13.346Z,5.65
2019-05-26T21:52:43.494Z,6.00
2019-05-26T21:55:13.997Z,5.72
2019-05-26T21:57:43.536Z,5.83
2019-05-26T22:00:15.563Z,5.60
2019-05-26T22:02:46.714Z,5.90
2019-05-26T22:05:16.624Z,5.90
2019-05-26T22:07:46.153Z,5.80
2019-05-26T22:10:15.938Z,6.40
2019-05-26T22:12:45.466Z,5.92
2019-05-26T22:15:15.338Z,6.00
2019-05-26T22:17:44.915Z,5.30
2019-05-26T22:20:14.743Z,6.10
2019-05-26T22:22:44.364Z,5.62
2019-05-26T22:25:14.062Z,5.72
2019-05-26T22:27:43.633Z,6.45
2019-05-26T22:30:13.386Z,5.97
2019-05-26T22:35:12.829Z,6.05
2019-05-26T22:40:12.096Z,6.07
2019-05-26T22:42:41.737Z,5.83
2019-05-26T22:47:40.286Z,6.47
2019-05-26T22:50:11.347Z,6.30
2019-05-26T22:52:40.882Z,6.25
2019-05-26T22:55:10.631Z,6.28
2019-05-26T22:57:40.248Z,6.05
2019-05-26T23:00:12.298Z,6.67
2019-05-26T23:02:41.977Z,5.92
2019-05-26T23:05:11.826Z,6.47
2019-05-26T23:07:42.519Z,6.40
2019-05-26T23:10:12.500Z,6.65
2019-05-26T23:12:42.043Z,6.33
2019-05-26T23:15:11.925Z,6.87
2019-05-26T23:17:41.610Z,6.60
2019-05-26T23:20:12.895Z,7.03
2019-05-26T23:22:42.423Z,6.80
2019-05-26T23:25:12.244Z,6.22
2019-05-26T23:27:41.770Z,6.83
2019-05-26T23:30:11.661Z,7.08
2019-05-26T23:32:41.266Z,6.92
2019-05-26T23:35:11.270Z,7.20
2019-05-26T23:37:40.823Z,7.42
2019-05-26T23:40:10.534Z,6.90
2019-05-26T23:42:40.139Z,7.05
2019-05-26T23:45:09.819Z,7.62
2019-05-26T23:50:08.494Z,7.30
2019-05-26T23:52:38.122Z,7.85
2019-05-26T23:55:08.109Z,8.18
2019-05-26T23:57:37.863Z,8.33
